Ellen Mcallister — WDG3673 — position and weather

sailwx.info

Track history (hours):
 
Tides and Currents Weather Stations Pressure Air Temp Water Temp Dewpoint Dewpoint Depression Visibility Wind Speed Wind Dir Waves Ship Positions

Ellen Mcallister

Owner: McAllister Towing & Transportation Inc., Staten Island, NY. More information available from US FCC via Universal Licensing System and Coast Guard Vessel Documentation Center.

Last reported at 2014-Nov-26 17:33 UTC. Time now 2014-Nov-27 02:52 UTC.
Position N 40°41' W 074°02'.

Length 35 m.

Type: Tug. MMSI: 366836590.

Date/timePositionNaut miles runAvg speedWind from/ knotsBaromVisibWave heightAir tempDewpointWater temp
2014-Nov-26 17:33N 40°41' W 074°02'2 1.7
2014-Nov-26 16:33N 40°42' W 074°00'4 2.2
2014-Nov-26 14:30N 40°38' W 074°03'0 0.0
2014-Nov-25 19:21N 40°38' W 074°03'1 0.1
2014-Nov-25 09:29N 40°39' W 074°04'4 0.3
2014-Nov-24 21:33N 40°41' W 074°00'2 0.0
2014-Nov-23 03:08N 40°40' W 074°02'3 6.0
2014-Nov-23 02:33N 40°42' W 073°58'0 0.1
2014-Nov-23 01:33N 40°42' W 073°58'5 0.2
2014-Nov-21 22:29N 40°40' W 074°05'5 1.3
2014-Nov-21 18:33N 40°42' W 073°59'0 0.5
2014-Nov-21 17:33N 40°42' W 073°58'0 0.0
2014-Nov-21 16:33N 40°42' W 073°58'0 0.0
2014-Nov-21 15:33N 40°42' W 073°58'0 0.0
2014-Nov-21 14:33N 40°42' W 073°58'0 0.1
2014-Nov-21 13:32N 40°42' W 073°58'5 1.2
2014-Nov-21 09:04N 40°40' W 074°05'3 0.4
2014-Nov-21 01:22N 40°39' W 074°01'1 1.1
2014-Nov-21 00:32N 40°40' W 074°00'0 0.0
2014-Nov-20 23:34N 40°40' W 074°00'3 0.2
2014-Nov-20 10:32N 40°38' W 074°03'1 0.0
2014-Nov-18 10:30N 40°38' W 074°03'2 2.3
2014-Nov-18 09:33N 40°40' W 074°05'  
Track history (hours):
 
Tides and Currents Weather Stations Pressure Air Temp Water Temp Dewpoint Dewpoint Depression Visibility Wind Speed Wind Dir Waves Ship Positions

Ellen Mcallister

Owner: McAllister Towing & Transportation Inc., Staten Island, NY. More information available from US FCC via Universal Licensing System and Coast Guard Vessel Documentation Center.

Last reported at 2014-Nov-26 17:33 UTC. Time now 2014-Nov-27 02:52 UTC.
Position N 40°41' W 074°02'.

Length 35 m.

Type: Tug. MMSI: 366836590.

Date/timePositionNaut miles runAvg speedWind from/ knotsBaromVisibWave heightAir tempDewpointWater temp
2014-Nov-26 17:33N 40°41' W 074°02'2 1.7
2014-Nov-26 16:33N 40°42' W 074°00'4 2.2
2014-Nov-26 14:30N 40°38' W 074°03'0 0.0
2014-Nov-25 19:21N 40°38' W 074°03'1 0.1
2014-Nov-25 09:29N 40°39' W 074°04'4 0.3
2014-Nov-24 21:33N 40°41' W 074°00'2 0.0
2014-Nov-23 03:08N 40°40' W 074°02'3 6.0
2014-Nov-23 02:33N 40°42' W 073°58'0 0.1
2014-Nov-23 01:33N 40°42' W 073°58'5 0.2
2014-Nov-21 22:29N 40°40' W 074°05'5 1.3
2014-Nov-21 18:33N 40°42' W 073°59'0 0.5
2014-Nov-21 17:33N 40°42' W 073°58'0 0.0
2014-Nov-21 16:33N 40°42' W 073°58'0 0.0
2014-Nov-21 15:33N 40°42' W 073°58'0 0.0
2014-Nov-21 14:33N 40°42' W 073°58'0 0.1
2014-Nov-21 13:32N 40°42' W 073°58'5 1.2
2014-Nov-21 09:04N 40°40' W 074°05'3 0.4
2014-Nov-21 01:22N 40°39' W 074°01'1 1.1
2014-Nov-21 00:32N 40°40' W 074°00'0 0.0
2014-Nov-20 23:34N 40°40' W 074°00'3 0.2
2014-Nov-20 10:32N 40°38' W 074°03'1 0.0
2014-Nov-18 10:30N 40°38' W 074°03'2 2.3
2014-Nov-18 09:33N 40°40' W 074°05'  

Dump ship's entire track history